Time;durP1;ratioP1;P1;durP2;ratioP2;P2;SDS_P1;SDS_P2;PMS_P1;PMS_P2;Temp;Humidity;BMP_temperature;BMP_pressure;BME280_temperature;BME280_humidity;BME280_pressure;Samples;Min_cycle;Max_cycle;Signal;HPM_P1;HPM_P2
2020/12/02 00:00:53;;;;;;;3.17;0.98;;;18.00;39.60;;;;;;5111303;28;20360;-72
2020/12/02 00:03:27;;;;;;;1.17;0.80;;;18.00;39.80;;;;;;5109395;28;20066;-72
2020/12/02 00:05:56;;;;;;;2.35;1.02;;;18.00;40.40;;;;;;5111432;28;20027;-72
2020/12/02 00:08:34;;;;;;;3.63;0.75;;;18.10;40.20;;;;;;5109293;28;20035;-71
2020/12/02 00:11:06;;;;;;;4.70;0.90;;;17.60;40.00;;;;;;5111315;28;20030;-71
2020/12/02 00:13:37;;;;;;;3.33;0.80;;;17.30;40.70;;;;;;5110521;28;20062;-72
2020/12/02 00:16:09;;;;;;;4.05;1.02;;;16.70;41.30;;;;;;5111391;28;20054;-73
2020/12/02 00:18:37;;;;;;;2.33;1.00;;;16.70;41.90;;;;;;5111261;28;20417;-72
2020/12/02 00:21:05;;;;;;;1.60;1.13;;;16.70;42.10;;;;;;5111158;28;20019;-72
2020/12/02 00:23:32;;;;;;;4.78;2.05;;;16.70;41.70;;;;;;5111200;28;20043;-73
2020/12/02 00:25:59;;;;;;;2.08;0.60;;;16.60;42.50;;;;;;5111219;28;20035;-73
2020/12/02 00:28:26;;;;;;;4.25;1.00;;;16.30;41.70;;;;;;5111256;28;20032;-73
2020/12/02 00:30:56;;;;;;;2.90;0.90;;;16.10;41.90;;;;;;5110964;28;20028;-73
2020/12/02 00:33:26;;;;;;;4.35;0.90;;;16.00;42.30;;;;;;5110629;28;20055;-72
2020/12/02 00:35:54;;;;;;;1.80;0.80;;;15.80;42.60;;;;;;5110841;28;20028;-72
2020/12/02 00:38:22;;;;;;;2.35;0.75;;;15.70;42.80;;;;;;5109122;28;20034;-70
2020/12/02 00:40:51;;;;;;;3.40;0.80;;;15.60;43.40;;;;;;5110689;28;20024;-71
2020/12/02 00:43:23;;;;;;;2.30;0.90;;;15.60;43.40;;;;;;5110684;28;20047;-72
2020/12/02 00:45:55;;;;;;;2.92;1.00;;;15.60;43.90;;;;;;5110863;28;20455;-71
2020/12/02 00:48:25;;;;;;;2.47;0.90;;;15.50;44.20;;;;;;5110184;28;20036;-71
2020/12/02 00:50:52;;;;;;;6.88;0.93;;;15.40;44.30;;;;;;5110889;28;20019;-71
2020/12/02 00:53:31;;;;;;;2.30;0.88;;;15.30;45.00;;;;;;5110579;28;20039;-71
2020/12/02 00:55:59;;;;;;;4.03;1.10;;;15.10;44.80;;;;;;5110906;28;20057;-72
2020/12/02 00:58:41;;;;;;;4.45;0.88;;;15.00;45.30;;;;;;5110604;28;20572;-72
2020/12/02 01:01:12;;;;;;;2.03;1.05;;;14.80;45.70;;;;;;5110876;28;20027;-71
2020/12/02 01:03:41;;;;;;;1.58;0.80;;;14.70;46.00;;;;;;5110851;28;20040;-72
2020/12/02 01:06:11;;;;;;;2.20;0.85;;;14.70;46.40;;;;;;5112860;28;20023;-72
2020/12/02 01:08:41;;;;;;;7.18;1.30;;;14.60;46.40;;;;;;5111541;28;20435;-71
2020/12/02 01:11:20;;;;;;;3.17;1.00;;;14.40;46.70;;;;;;5109930;28;20036;-71
2020/12/02 01:13:52;;;;;;;6.25;1.10;;;14.30;47.60;;;;;;5111833;28;20031;-72
2020/12/02 01:16:32;;;;;;;5.03;1.00;;;14.20;47.20;;;;;;5114365;28;20027;-72
2020/12/02 01:18:59;;;;;;;1.83;1.17;;;14.20;47.40;;;;;;5114014;28;20031;-71
2020/12/02 01:21:38;;;;;;;2.47;1.02;;;14.20;47.70;;;;;;5114261;28;20027;-72
2020/12/02 01:24:16;;;;;;;3.05;1.10;;;14.10;47.70;;;;;;5114044;28;20032;-71
2020/12/02 01:26:47;;;;;;;4.70;1.30;;;14.10;47.80;;;;;;5114249;28;20016;-71
2020/12/02 01:29:18;;;;;;;5.00;1.37;;;14.00;48.20;;;;;;5113955;28;20027;-72
2020/12/02 01:31:48;;;;;;;2.60;1.20;;;14.00;48.40;;;;;;5114203;28;20739;-72
2020/12/02 01:34:15;;;;;;;3.55;1.35;;;14.00;48.70;;;;;;5114285;28;20027;-73
2020/12/02 01:37:22;;;;;;;1.88;0.90;;;13.80;48.70;;;;;;5113734;28;20035;-71
2020/12/02 01:40:21;;;;;;;3.90;1.30;;;13.80;48.90;;;;;;5112185;28;20043;-71
2020/12/02 01:43:01;;;;;;;2.97;1.10;;;13.80;48.90;;;;;;5113776;28;20035;-71
2020/12/02 01:45:42;;;;;;;4.53;1.25;;;13.90;49.30;;;;;;5112879;28;20043;-71
2020/12/02 01:48:23;;;;;;;3.00;1.45;;;13.70;49.90;;;;;;5113433;28;20480;-71
2020/12/02 01:51:17;;;;;;;2.50;1.25;;;13.60;49.80;;;;;;5113078;28;20043;-71
2020/12/02 01:53:50;;;;;;;4.13;1.38;;;13.60;49.60;;;;;;5112405;28;20494;-71
2020/12/02 01:56:57;;;;;;;2.60;1.65;;;13.60;49.70;;;;;;5113637;28;20032;-71
2020/12/02 02:00:03;;;;;;;4.57;1.63;;;13.50;49.90;;;;;;5113117;28;20028;-71
2020/12/02 02:02:57;;;;;;;6.22;1.50;;;13.50;49.40;;;;;;5112594;28;20413;-72
2020/12/02 02:05:24;;;;;;;3.17;1.40;;;13.50;49.90;;;;;;5113530;28;20031;-72
2020/12/02 02:07:55;;;;;;;3.22;1.35;;;13.40;50.00;;;;;;5113183;28;20024;-72
2020/12/02 02:10:31;;;;;;;2.65;1.13;;;13.40;49.60;;;;;;5113199;28;20015;-72
2020/12/02 02:13:37;;;;;;;2.45;1.98;;;13.30;49.60;;;;;;5112978;28;20047;-72
2020/12/02 02:16:17;;;;;;;3.45;1.60;;;13.30;49.10;;;;;;5113451;28;20368;-72
2020/12/02 02:18:45;;;;;;;2.90;1.33;;;13.20;49.30;;;;;;5113046;28;20032;-72
2020/12/02 02:21:27;;;;;;;2.83;1.48;;;13.20;49.30;;;;;;5111328;28;20027;-72
2020/12/02 02:23:54;;;;;;;2.47;1.48;;;13.10;49.80;;;;;;5110594;28;20043;-73
2020/12/02 02:26:27;;;;;;;5.43;1.25;;;13.10;50.10;;;;;;5103356;28;20028;-73
2020/12/02 02:29:08;;;;;;;5.05;1.35;;;13.00;50.90;;;;;;5110035;28;20391;-74
2020/12/02 02:32:05;;;;;;;2.55;1.45;;;12.80;50.70;;;;;;5113278;28;20016;-73
2020/12/02 02:34:34;;;;;;;3.80;1.23;;;12.70;51.10;;;;;;5110667;28;20040;-73
2020/12/02 02:37:04;;;;;;;7.85;4.20;;;12.60;51.30;;;;;;5113018;28;20023;-72
2020/12/02 02:39:34;;;;;;;14.55;5.97;;;12.60;50.90;;;;;;5113068;28;20028;-73
2020/12/02 02:42:06;;;;;;;5.20;2.70;;;12.60;50.80;;;;;;5112816;28;20027;-73
2020/12/02 02:44:34;;;;;;;3.78;2.88;;;12.60;50.40;;;;;;5112672;28;20153;-73
2020/12/02 02:47:01;;;;;;;3.50;2.33;;;12.80;49.30;;;;;;5112647;28;20017;-73
2020/12/02 02:49:29;;;;;;;4.55;2.50;;;13.20;48.30;;;;;;5111031;28;20036;-72
2020/12/02 02:51:56;;;;;;;4.95;2.30;;;13.50;47.60;;;;;;5112559;28;20015;-73
2020/12/02 02:54:26;;;;;;;5.50;2.65;;;13.60;47.10;;;;;;5112161;28;20053;-73
2020/12/02 02:56:53;;;;;;;7.32;4.43;;;13.70;46.90;;;;;;5112436;28;20368;-72
2020/12/02 02:59:20;;;;;;;14.35;5.28;;;13.70;46.70;;;;;;5112327;28;20036;-73
2020/12/02 03:01:48;;;;;;;8.52;4.65;;;13.80;46.20;;;;;;5112616;28;20027;-72
2020/12/02 03:04:15;;;;;;;5.50;3.35;;;13.90;46.00;;;;;;5112452;28;20040;-74
2020/12/02 03:06:42;;;;;;;10.68;3.38;;;14.00;45.70;;;;;;5110155;28;20471;-74
2020/12/02 03:09:12;;;;;;;4.47;1.45;;;14.00;45.50;;;;;;5112429;28;20031;-73
2020/12/02 03:11:40;;;;;;;4.05;1.85;;;14.20;45.20;;;;;;5112073;28;20368;-73
2020/12/02 03:14:08;;;;;;;6.82;2.85;;;14.10;45.30;;;;;;5112224;28;20352;-73
2020/12/02 03:16:55;;;;;;;3.92;1.63;;;14.10;45.20;;;;;;5112142;28;20027;-73
2020/12/02 03:19:28;;;;;;;4.63;2.10;;;14.20;45.00;;;;;;5113214;28;20333;-72
2020/12/02 03:22:02;;;;;;;5.75;1.70;;;14.10;45.10;;;;;;5111896;28;20027;-70
2020/12/02 03:24:29;;;;;;;3.58;2.30;;;14.20;45.00;;;;;;5109797;28;20442;-71
2020/12/02 03:26:56;;;;;;;3.63;2.45;;;14.10;45.00;;;;;;5111862;28;20499;-72
2020/12/02 03:29:26;;;;;;;3.47;1.20;;;14.00;45.00;;;;;;5111990;28;20132;-72
2020/12/02 03:31:53;;;;;;;6.90;2.28;;;14.00;45.30;;;;;;5111662;28;20015;-74
2020/12/02 03:34:21;;;;;;;3.83;1.50;;;13.90;45.50;;;;;;5111585;28;20042;-74
2020/12/02 03:36:49;;;;;;;6.20;1.27;;;13.90;45.60;;;;;;5110792;28;20034;-73
2020/12/02 03:39:17;;;;;;;3.88;1.63;;;13.90;45.30;;;;;;5111519;28;20023;-72
2020/12/02 03:41:45;;;;;;;4.97;0.90;;;13.90;45.30;;;;;;5111802;28;20039;-72
2020/12/02 03:44:12;;;;;;;2.08;1.15;;;13.90;45.40;;;;;;5111341;28;20094;-73
2020/12/02 03:46:39;;;;;;;3.35;1.67;;;13.90;45.90;;;;;;5111811;28;20035;-73
2020/12/02 03:49:07;;;;;;;5.90;0.98;;;13.80;45.70;;;;;;5109691;28;20360;-73
2020/12/02 03:51:35;;;;;;;4.28;2.35;;;13.70;45.90;;;;;;5109746;28;20036;-70
2020/12/02 03:54:02;;;;;;;6.00;2.60;;;13.50;46.30;;;;;;5111380;28;20491;-72
2020/12/02 03:56:41;;;;;;;4.40;1.17;;;13.40;46.50;;;;;;5110335;28;20046;-71
2020/12/02 03:59:08;;;;;;;5.80;1.27;;;13.30;46.70;;;;;;5109302;28;20388;-72
2020/12/02 04:01:35;;;;;;;2.10;1.30;;;13.30;46.70;;;;;;5111702;28;20024;-72
2020/12/02 04:04:02;;;;;;;5.25;1.00;;;13.10;47.10;;;;;;5111924;28;20050;-73
2020/12/02 04:06:29;;;;;;;7.32;1.65;;;13.00;47.50;;;;;;5111067;28;20455;-72
2020/12/02 04:08:56;;;;;;;2.97;0.85;;;13.10;47.20;;;;;;5111452;28;20035;-72
2020/12/02 04:11:23;;;;;;;1.58;0.88;;;13.10;47.10;;;;;;5111199;28;20027;-72
2020/12/02 04:13:50;;;;;;;2.95;0.90;;;13.10;47.20;;;;;;5111243;28;20035;-72
2020/12/02 04:16:18;;;;;;;2.97;1.23;;;13.10;47.70;;;;;;5109112;28;20044;-72
2020/12/02 04:18:45;;;;;;;2.42;1.20;;;12.90;47.80;;;;;;5111331;28;20376;-72
2020/12/02 04:21:12;;;;;;;3.45;1.02;;;12.80;47.90;;;;;;5111300;28;20035;-72
2020/12/02 04:23:39;;;;;;;3.85;1.38;;;12.80;47.90;;;;;;5111165;28;20032;-72
2020/12/02 04:26:06;;;;;;;2.65;1.08;;;12.80;48.00;;;;;;5111355;28;20115;-73
2020/12/02 04:28:33;;;;;;;2.20;1.08;;;12.80;47.90;;;;;;5110776;28;20020;-74
2020/12/02 04:31:00;;;;;;;4.32;1.42;;;12.70;48.10;;;;;;5110896;28;20024;-72
2020/12/02 04:33:27;;;;;;;3.08;1.35;;;12.60;48.40;;;;;;5110763;28;20023;-73
2020/12/02 04:35:54;;;;;;;4.40;1.20;;;12.50;48.70;;;;;;5106895;28;20024;-73
2020/12/02 04:38:22;;;;;;;3.97;0.90;;;12.70;48.20;;;;;;5095517;28;20024;-73
2020/12/02 04:40:49;;;;;;;2.30;0.82;;;12.70;48.20;;;;;;5097039;28;20050;-73
2020/12/02 04:43:24;;;;;;;1.83;0.90;;;12.70;48.90;;;;;;5093586;28;20039;-73
2020/12/02 04:45:54;;;;;;;3.47;0.85;;;12.70;48.00;;;;;;5105495;28;20028;-74
2020/12/02 04:48:26;;;;;;;2.92;1.00;;;12.50;48.70;;;;;;5098800;27;20039;-74
2020/12/02 04:51:12;;;;;;;3.20;0.93;;;12.50;48.60;;;;;;5095695;28;20395;-72
2020/12/02 04:53:42;;;;;;;3.35;1.00;;;12.50;48.50;;;;;;5093990;28;20090;-71
2020/12/02 04:56:09;;;;;;;4.95;1.20;;;12.50;48.90;;;;;;5103428;28;20047;-73
2020/12/02 04:58:39;;;;;;;6.60;1.10;;;12.30;49.20;;;;;;5114153;28;20048;-72
2020/12/02 05:01:29;;;;;;;2.80;0.80;;;12.50;48.80;;;;;;5107959;28;20032;-73
2020/12/02 05:04:03;;;;;;;1.83;0.75;;;12.50;48.50;;;;;;5097761;28;20377;-73
2020/12/02 05:06:45;;;;;;;1.60;0.88;;;12.60;48.60;;;;;;5099069;28;20032;-73
2020/12/02 05:09:23;;;;;;;3.83;0.95;;;12.90;47.90;;;;;;5094486;28;20024;-73
2020/12/02 05:12:27;;;;;;;2.58;0.93;;;12.90;47.80;;;;;;5103378;28;20467;-73
2020/12/02 05:15:15;;;;;;;5.97;1.00;;;13.10;47.50;;;;;;5113389;28;20047;-72
2020/12/02 05:17:43;;;;;;;4.60;0.85;;;13.00;47.60;;;;;;5107688;28;20038;-72
2020/12/02 05:20:15;;;;;;;3.13;1.00;;;13.00;47.50;;;;;;5107761;28;20028;-72
2020/12/02 05:22:48;;;;;;;2.80;0.90;;;13.10;47.60;;;;;;5113877;28;20036;-73
2020/12/02 05:25:33;;;;;;;13.00;1.13;;;13.10;47.60;;;;;;5110708;28;20051;-72
2020/12/02 05:28:28;;;;;;;3.03;0.90;;;13.40;47.00;;;;;;5094893;28;20464;-72
2020/12/02 05:31:15;;;;;;;1.45;0.88;;;13.50;46.70;;;;;;5095172;28;20408;-72
2020/12/02 05:33:42;;;;;;;4.47;1.02;;;13.30;47.20;;;;;;5094845;28;20334;-72
2020/12/02 05:36:28;;;;;;;1.50;0.80;;;13.10;47.50;;;;;;5094827;28;20047;-72
2020/12/02 05:39:06;;;;;;;2.42;0.82;;;13.00;47.50;;;;;;5097345;28;20036;-72
2020/12/02 05:41:34;;;;;;;3.67;1.15;;;13.10;47.50;;;;;;5106120;28;20030;-73
2020/12/02 05:44:17;;;;;;;2.47;0.90;;;13.10;47.50;;;;;;5112888;28;20472;-72
2020/12/02 05:47:09;;;;;;;6.68;1.08;;;12.90;47.80;;;;;;5095068;28;20039;-72
2020/12/02 05:49:48;;;;;;;3.22;0.98;;;12.70;48.30;;;;;;5094271;28;20039;-73
2020/12/02 05:52:24;;;;;;;3.58;1.10;;;12.50;48.80;;;;;;5094541;28;20032;-72
2020/12/02 05:54:57;;;;;;;5.20;0.85;;;12.40;49.10;;;;;;5092703;28;20059;-72
2020/12/02 05:57:24;;;;;;;2.10;1.05;;;12.20;49.60;;;;;;5109811;28;20034;-72
2020/12/02 05:59:56;;;;;;;2.20;0.90;;;12.20;49.30;;;;;;5095841;28;20354;-72
2020/12/02 06:02:24;;;;;;;3.08;1.00;;;12.10;49.50;;;;;;5093451;28;20040;-73
2020/12/02 06:04:54;;;;;;;7.63;1.00;;;12.00;50.30;;;;;;5093051;28;20059;-72
2020/12/02 06:07:23;;;;;;;5.28;1.10;;;11.90;50.00;;;;;;5092735;28;20028;-73
2020/12/02 06:09:52;;;;;;;2.55;0.82;;;11.80;50.00;;;;;;5093922;28;20023;-72
2020/12/02 06:12:38;;;;;;;3.63;0.85;;;11.80;50.00;;;;;;5093526;28;20345;-73
2020/12/02 06:15:25;;;;;;;2.97;0.73;;;11.80;50.00;;;;;;5093046;28;20076;-73
2020/12/02 06:18:22;;;;;;;2.22;1.10;;;11.80;50.30;;;;;;5102771;28;20051;-73
2020/12/02 06:20:49;;;;;;;3.75;1.02;;;11.70;50.10;;;;;;5098329;28;20024;-72
2020/12/02 06:23:16;;;;;;;2.90;1.08;;;11.70;50.00;;;;;;5093285;28;20036;-72
2020/12/02 06:25:56;;;;;;;8.85;1.15;;;11.70;50.20;;;;;;5092643;28;20518;-72
2020/12/02 06:28:29;;;;;;;9.40;1.15;;;11.70;50.30;;;;;;5098324;28;20020;-72
2020/12/02 06:30:58;;;;;;;3.50;0.88;;;11.70;50.40;;;;;;5102699;28;20039;-72
2020/12/02 06:33:37;;;;;;;1.65;0.73;;;11.60;50.70;;;;;;5095733;28;20039;-73
2020/12/02 06:36:18;;;;;;;2.42;1.00;;;11.60;50.60;;;;;;5108424;28;20046;-73
2020/12/02 06:38:48;;;;;;;3.85;1.02;;;11.80;50.40;;;;;;5103016;28;20399;-74
2020/12/02 06:41:21;;;;;;;7.00;1.13;;;12.00;49.60;;;;;;5098263;28;21059;-75
2020/12/02 06:43:55;;;;;;;3.70;0.93;;;12.10;49.80;;;;;;5092387;28;20036;-74
2020/12/02 06:46:42;;;;;;;3.45;0.90;;;12.10;49.50;;;;;;5100167;28;20480;-75
2020/12/02 06:49:10;;;;;;;3.20;0.88;;;12.00;49.60;;;;;;5029791;28;20071;-74
2020/12/02 06:51:38;;;;;;;4.18;0.75;;;11.90;50.00;;;;;;5013225;28;20046;-73
2020/12/02 06:54:04;;;;;;;3.15;1.35;;;11.90;49.70;;;;;;5028978;28;20397;-73
2020/12/02 06:56:32;;;;;;;1.67;0.70;;;11.80;50.30;;;;;;5029736;28;20041;-73
2020/12/02 06:59:06;;;;;;;1.15;0.77;;;11.70;50.00;;;;;;5028409;28;20040;-74
2020/12/02 07:01:35;;;;;;;3.00;0.90;;;11.70;50.40;;;;;;5029723;28;20045;-75
2020/12/02 07:04:07;;;;;;;3.55;0.95;;;11.60;50.20;;;;;;5029873;28;20386;-75
2020/12/02 07:06:34;;;;;;;2.20;0.77;;;11.60;50.70;;;;;;5029341;28;20042;-75
2020/12/02 07:09:12;;;;;;;5.22;1.85;;;11.60;50.60;;;;;;5029263;28;20497;-75
2020/12/02 07:11:48;;;;;;;3.97;0.90;;;11.60;50.80;;;;;;5029389;28;20048;-75
2020/12/02 07:14:21;;;;;;;1.88;0.80;;;11.60;50.50;;;;;;5029357;28;20493;-74
2020/12/02 07:16:55;;;;;;;2.83;0.90;;;11.60;51.00;;;;;;5028864;28;20037;-74
2020/12/02 07:19:31;;;;;;;6.47;1.10;;;11.50;51.40;;;;;;5029373;28;20037;-73
2020/12/02 07:22:04;;;;;;;4.63;1.10;;;11.40;51.20;;;;;;5029318;28;20029;-74
2020/12/02 07:24:45;;;;;;;1.67;0.77;;;11.40;51.30;;;;;;5028963;28;20061;-74
2020/12/02 07:27:13;;;;;;;6.75;1.10;;;11.30;51.90;;;;;;5083520;28;20380;-75
2020/12/02 07:29:40;;;;;;;5.10;1.00;;;11.30;52.20;;;;;;5091313;28;20039;-75
2020/12/02 07:32:15;;;;;;;2.90;0.93;;;11.30;52.20;;;;;;5090247;28;20034;-73
2020/12/02 07:34:42;;;;;;;2.00;0.95;;;11.30;52.10;;;;;;5096833;28;20039;-74
2020/12/02 07:37:19;;;;;;;3.53;1.05;;;11.30;52.50;;;;;;5112160;28;20016;-72
2020/12/02 07:39:46;;;;;;;2.65;1.17;;;11.40;52.20;;;;;;5111548;28;20391;-73
2020/12/02 07:42:17;;;;;;;1.92;1.08;;;11.30;52.10;;;;;;5111585;28;20050;-73
2020/12/02 07:44:49;;;;;;;;;;;11.30;52.30;;;;;;5112204;28;20464;-73
2020/12/02 07:47:19;;;;;;;1.95;1.00;;;11.30;52.90;;;;;;5113151;28;19903;-74
2020/12/02 07:50:18;;;;;;;2.42;1.05;;;11.40;53.10;;;;;;5112299;28;20024;-73
2020/12/02 07:52:48;;;;;;;3.72;1.00;;;11.50;53.80;;;;;;5028212;28;20514;-72
2020/12/02 07:55:23;;;;;;;1.77;1.00;;;11.80;53.30;;;;;;5028428;28;20045;-72
2020/12/02 07:57:50;;;;;;;3.75;1.20;;;11.70;53.10;;;;;;5027775;28;20596;-75
2020/12/02 08:00:18;;;;;;;3.00;0.82;;;11.60;53.50;;;;;;5028470;28;20037;-75
2020/12/02 08:02:45;;;;;;;4.55;1.70;;;11.50;53.80;;;;;;5028015;28;20061;-74
2020/12/02 08:05:38;;;;;;;4.90;1.00;;;11.50;54.00;;;;;;5027737;28;20544;-73
2020/12/02 08:08:06;;;;;;;2.08;1.10;;;11.50;54.90;;;;;;5028830;28;20029;-75
2020/12/02 08:10:36;;;;;;;8.13;1.08;;;11.50;54.90;;;;;;5028144;28;20048;-74
2020/12/02 08:13:19;;;;;;;3.30;1.20;;;11.50;54.80;;;;;;5028470;28;20165;-74
2020/12/02 08:15:52;;;;;;;3.20;1.50;;;11.50;55.60;;;;;;5028532;28;20025;-75
2020/12/02 08:18:25;;;;;;;3.17;1.02;;;11.40;55.20;;;;;;5028520;28;20145;-74
2020/12/02 08:20:52;;;;;;;4.10;1.33;;;11.30;55.00;;;;;;5028520;28;20028;-74
2020/12/02 08:23:35;;;;;;;3.33;1.00;;;11.40;55.40;;;;;;5013535;28;20041;-74
2020/12/02 08:26:15;;;;;;;3.33;1.00;;;11.40;55.60;;;;;;5032712;28;20050;-74
2020/12/02 08:28:44;;;;;;;2.80;1.20;;;11.30;55.80;;;;;;5035773;28;20036;-74
2020/12/02 08:31:27;;;;;;;2.83;1.00;;;11.30;55.40;;;;;;5116433;28;20019;-74
2020/12/02 08:34:09;;;;;;;3.05;1.10;;;11.40;55.90;;;;;;5115329;28;20051;-74
2020/12/02 08:36:38;;;;;;;3.28;1.10;;;11.60;55.50;;;;;;5095148;28;20419;-74
2020/12/02 08:39:08;;;;;;;2.47;1.17;;;11.50;55.70;;;;;;5094602;28;20388;-72
2020/12/02 08:41:46;;;;;;;3.72;1.30;;;11.50;55.60;;;;;;5095027;28;20024;-73
2020/12/02 08:44:18;;;;;;;4.75;1.38;;;11.50;55.60;;;;;;5094890;28;20047;-74
2020/12/02 08:47:12;;;;;;;3.00;1.20;;;11.50;56.10;;;;;;5094716;28;20043;-75
2020/12/02 08:49:39;;;;;;;3.17;1.40;;;11.40;55.90;;;;;;5094660;28;20384;-71
2020/12/02 08:52:07;;;;;;;3.28;1.13;;;11.50;56.50;;;;;;5094565;28;20031;-73
2020/12/02 08:54:35;;;;;;;5.28;1.25;;;11.50;55.80;;;;;;5093970;28;20051;-73
2020/12/02 08:57:05;;;;;;;4.05;1.25;;;11.50;55.60;;;;;;5094673;28;20024;-72
2020/12/02 08:59:32;;;;;;;4.90;1.40;;;11.60;56.10;;;;;;5092713;28;20039;-73
2020/12/02 09:02:10;;;;;;;5.57;1.52;;;11.60;56.00;;;;;;5093519;28;20044;-72
2020/12/02 09:04:37;;;;;;;3.63;1.60;;;11.60;55.80;;;;;;5094595;28;20498;-72
2020/12/02 09:07:04;;;;;;;3.83;1.15;;;11.50;56.30;;;;;;5094077;28;20032;-72
2020/12/02 09:09:31;;;;;;;1.80;1.20;;;11.50;56.60;;;;;;5094184;28;20346;-72
2020/12/02 09:11:58;;;;;;;3.90;0.90;;;11.50;56.00;;;;;;5094238;28;20108;-71
2020/12/02 09:14:25;;;;;;;2.92;1.20;;;11.50;55.80;;;;;;5094100;28;20028;-71
2020/12/02 09:16:53;;;;;;;4.30;1.38;;;11.50;55.80;;;;;;5095143;28;20372;-71
2020/12/02 09:19:20;;;;;;;2.65;1.38;;;11.40;56.50;;;;;;5094527;28;20031;-72
2020/12/02 09:21:48;;;;;;;1.90;0.88;;;11.40;56.00;;;;;;5093593;28;20456;-73
2020/12/02 09:24:17;;;;;;;4.30;1.48;;;11.30;56.00;;;;;;5093617;28;20036;-73
2020/12/02 09:26:44;;;;;;;2.25;1.10;;;11.30;56.20;;;;;;5092434;28;20523;-73
2020/12/02 09:29:15;;;;;;;3.15;1.65;;;11.30;56.20;;;;;;5093276;28;20044;-72
2020/12/02 09:31:42;;;;;;;2.58;1.00;;;11.20;55.90;;;;;;5095316;28;20036;-72
2020/12/02 09:34:09;;;;;;;2.33;1.95;;;11.10;56.00;;;;;;5093334;28;20028;-72
2020/12/02 09:36:37;;;;;;;5.45;0.90;;;11.00;56.60;;;;;;5093637;28;20100;-72
2020/12/02 09:39:06;;;;;;;1.70;0.95;;;11.00;56.40;;;;;;5108309;28;20051;-72
2020/12/02 09:41:39;;;;;;;3.80;1.70;;;11.00;56.50;;;;;;5099893;28;20020;-72
2020/12/02 09:44:24;;;;;;;5.43;1.40;;;11.10;56.70;;;;;;5103622;28;20452;-72
2020/12/02 09:47:05;;;;;;;5.75;1.42;;;11.00;56.60;;;;;;5113654;28;20020;-72
2020/12/02 09:49:33;;;;;;;2.85;1.30;;;11.00;57.40;;;;;;5099770;28;20043;-72
2020/12/02 09:52:10;;;;;;;2.95;1.20;;;11.00;56.80;;;;;;5107567;28;20027;-72
2020/12/02 09:54:42;;;;;;;6.00;1.92;;;11.00;56.60;;;;;;5111093;28;20051;-72
2020/12/02 09:57:23;;;;;;;4.30;1.20;;;10.90;56.80;;;;;;5099906;28;20036;-72
2020/12/02 09:59:55;;;;;;;1.80;1.10;;;10.90;56.80;;;;;;5092864;28;20043;-72
2020/12/02 10:02:37;;;;;;;6.45;1.10;;;10.90;57.30;;;;;;5108734;28;20028;-71
2020/12/02 10:05:15;;;;;;;4.50;1.08;;;10.80;57.00;;;;;;5113316;28;20487;-72
2020/12/02 10:08:01;;;;;;;3.40;1.17;;;10.70;57.30;;;;;;5111333;28;20027;-72
2020/12/02 10:11:11;;;;;;;6.88;1.73;;;10.70;57.60;;;;;;5113301;28;20031;-73
2020/12/02 10:14:15;;;;;;;1.98;1.00;;;10.70;57.90;;;;;;5070268;28;20040;-73
2020/12/02 10:17:09;;;;;;;2.33;1.38;;;10.70;58.00;;;;;;5070048;28;20035;-73
2020/12/02 10:20:03;;;;;;;2.50;0.98;;;10.80;58.10;;;;;;5070059;28;20488;-73
2020/12/02 10:22:33;;;;;;;5.43;1.40;;;10.70;58.40;;;;;;5069781;28;20040;-72
2020/12/02 10:25:28;;;;;;;3.75;1.45;;;10.70;57.90;;;;;;5069787;28;20051;-71
2020/12/02 10:28:04;;;;;;;3.45;1.35;;;10.70;58.10;;;;;;5070100;28;20432;-72
2020/12/02 10:30:35;;;;;;;3.38;1.08;;;10.60;58.60;;;;;;5070033;28;20040;-72
2020/12/02 10:33:38;;;;;;;2.80;1.23;;;10.60;58.60;;;;;;5069851;28;20516;-71
2020/12/02 10:36:05;;;;;;;1.77;1.08;;;10.50;58.30;;;;;;5069918;28;20270;-73
2020/12/02 10:38:43;;;;;;;6.07;1.20;;;10.50;58.90;;;;;;5069850;28;20042;-73
2020/12/02 10:41:30;;;;;;;4.93;1.33;;;10.50;58.70;;;;;;5070044;28;20055;-73
2020/12/02 10:43:57;;;;;;;6.35;1.65;;;10.50;59.40;;;;;;5069410;28;20388;-72
2020/12/02 10:46:46;;;;;;;2.88;1.10;;;10.90;58.40;;;;;;5069391;28;20040;-72
2020/12/02 10:49:27;;;;;;;3.55;1.30;;;10.80;58.20;;;;;;5069584;28;20028;-72
2020/12/02 10:51:57;;;;;;;1.63;0.90;;;10.90;57.40;;;;;;5108998;28;20505;-71
2020/12/02 10:54:34;;;;;;;2.22;1.00;;;11.10;56.70;;;;;;5093239;28;20044;-73
2020/12/02 10:57:12;;;;;;;5.95;1.08;;;11.30;55.40;;;;;;5108963;28;20043;-73
2020/12/02 10:59:39;;;;;;;2.90;1.00;;;11.30;55.40;;;;;;5110254;28;20038;-73
2020/12/02 11:02:16;;;;;;;2.95;1.10;;;11.30;55.10;;;;;;5092011;28;20055;-72
2020/12/02 11:04:46;;;;;;;2.15;0.82;;;11.40;54.80;;;;;;5107900;28;20039;-72
2020/12/02 11:07:33;;;;;;;2.85;1.52;;;11.30;54.90;;;;;;5110545;28;20031;-73
2020/12/02 11:10:06;;;;;;;2.92;1.10;;;11.50;54.20;;;;;;5094285;28;20486;-72
2020/12/02 11:12:57;;;;;;;3.72;1.17;;;11.40;54.80;;;;;;5091428;28;20051;-73
2020/12/02 11:15:24;;;;;;;2.93;1.00;;;11.50;54.00;;;;;;5094466;28;20032;-72
2020/12/02 11:18:02;;;;;;;2.13;1.08;;;11.50;54.00;;;;;;5092779;28;20265;-73
2020/12/02 11:20:37;;;;;;;3.05;0.85;;;11.60;53.70;;;;;;5091652;28;20039;-73
2020/12/02 11:23:12;;;;;;;4.63;1.08;;;11.70;53.30;;;;;;5111284;28;20383;-73
2020/12/02 11:26:06;;;;;;;3.95;0.80;;;11.70;53.40;;;;;;5092302;28;20420;-73
2020/12/02 11:28:33;;;;;;;4.13;1.15;;;11.80;53.10;;;;;;5099667;28;20027;-73
2020/12/02 11:31:08;;;;;;;1.60;1.10;;;11.80;53.00;;;;;;5110120;28;20036;-74
2020/12/02 11:34:10;;;;;;;5.38;2.45;;;11.70;53.00;;;;;;5092682;28;20372;-73
2020/12/02 11:37:01;;;;;;;4.93;1.00;;;11.70;52.90;;;;;;5080416;28;20044;-73
2020/12/02 11:39:38;;;;;;;5.15;1.00;;;11.70;53.00;;;;;;5092587;28;20123;-72
2020/12/02 11:42:23;;;;;;;2.65;0.98;;;11.70;52.80;;;;;;5091933;28;20024;-74
2020/12/02 11:44:59;;;;;;;9.77;1.30;;;11.70;53.30;;;;;;5097855;28;20031;-73
2020/12/02 11:47:55;;;;;;;8.60;1.40;;;11.80;53.10;;;;;;5112041;28;20038;-73
2020/12/02 11:50:42;;;;;;;3.08;1.13;;;11.80;52.70;;;;;;5017317;28;20045;-73
2020/12/02 11:53:56;;;;;;;4.78;1.30;;;11.90;52.70;;;;;;4931346;29;20083;-74
2020/12/02 11:56:31;;;;;;;4.50;1.10;;;11.80;52.60;;;;;;4949924;28;20047;-73
2020/12/02 11:59:06;;;;;;;2.50;1.30;;;11.70;52.90;;;;;;4948633;28;20054;-71
2020/12/02 12:02:03;;;;;;;2.70;1.13;;;11.70;53.00;;;;;;4949057;28;20367;-71
2020/12/02 12:04:33;;;;;;;5.10;1.17;;;11.80;53.20;;;;;;4948712;29;20492;-72
2020/12/02 12:07:13;;;;;;;2.30;1.27;;;11.70;53.30;;;;;;4950554;29;20035;-71
2020/12/02 12:09:48;;;;;;;3.10;1.10;;;11.60;53.70;;;;;;4950320;29;20047;-72
2020/12/02 12:12:32;;;;;;;4.78;1.20;;;11.60;53.70;;;;;;4950744;29;20278;-71
2020/12/02 12:15:26;;;;;;;2.17;1.27;;;11.50;54.00;;;;;;4950311;28;20429;-71
2020/12/02 12:17:54;;;;;;;2.83;1.40;;;11.50;53.40;;;;;;4950399;28;20035;-71
2020/12/02 12:20:32;;;;;;;3.38;1.35;;;11.60;53.30;;;;;;4950107;28;20039;-71
2020/12/02 12:23:24;;;;;;;4.90;1.65;;;11.50;53.40;;;;;;4950446;29;20676;-71
2020/12/02 12:25:51;;;;;;;1.67;1.05;;;11.50;53.40;;;;;;4950323;28;20535;-71
2020/12/02 12:28:22;;;;;;;6.35;1.50;;;11.50;53.50;;;;;;5013555;28;20052;-71
2020/12/02 12:30:50;;;;;;;3.33;1.20;;;11.40;53.30;;;;;;5072759;28;20357;-71
2020/12/02 12:33:36;;;;;;;7.00;1.52;;;11.50;53.50;;;;;;5090807;28;20484;-73
2020/12/02 12:36:20;;;;;;;10.07;1.83;;;11.40;53.60;;;;;;5101184;28;20383;-74
2020/12/02 12:38:56;;;;;;;3.17;1.38;;;11.60;53.00;;;;;;5109235;28;20390;-72
2020/12/02 12:41:39;;;;;;;5.63;1.55;;;11.50;53.30;;;;;;5109651;28;20142;-72
2020/12/02 12:44:12;;;;;;;3.13;1.40;;;11.50;53.50;;;;;;5111368;28;20027;-73
2020/12/02 12:46:48;;;;;;;8.63;2.20;;;11.60;53.20;;;;;;5091706;28;20040;-72
2020/12/02 12:49:17;;;;;;;4.18;1.60;;;11.70;52.90;;;;;;5090678;28;20031;-72
2020/12/02 12:51:46;;;;;;;5.10;1.42;;;11.60;53.00;;;;;;5090301;28;20396;-74
2020/12/02 12:54:18;;;;;;;2.60;1.25;;;11.50;53.20;;;;;;5089952;28;20040;-74
2020/12/02 12:56:51;;;;;;;3.30;1.60;;;11.40;53.10;;;;;;5109005;28;20027;-73
2020/12/02 12:59:19;;;;;;;2.38;1.25;;;11.40;53.60;;;;;;5096659;28;20024;-73
2020/12/02 13:01:49;;;;;;;3.53;1.60;;;11.30;53.60;;;;;;5091351;28;20040;-71
2020/12/02 13:04:19;;;;;;;3.38;1.60;;;11.20;53.90;;;;;;5090616;28;20035;-72
2020/12/02 13:07:08;;;;;;;1.60;1.13;;;11.20;53.40;;;;;;5103508;28;20348;-72
2020/12/02 13:09:47;;;;;;;3.47;1.38;;;11.20;53.50;;;;;;5113385;28;20475;-73
2020/12/02 13:12:44;;;;;;;2.10;1.30;;;11.20;53.60;;;;;;5111117;28;20044;-73
2020/12/02 13:15:23;;;;;;;3.50;1.65;;;11.20;53.70;;;;;;5014292;28;20049;-72
2020/12/02 13:18:08;;;;;;;5.15;1.63;;;11.20;54.10;;;;;;5012187;28;20040;-72
2020/12/02 13:20:50;;;;;;;4.55;1.60;;;11.10;53.50;;;;;;5013721;28;20046;-72
2020/12/02 13:23:27;;;;;;;5.03;1.80;;;11.20;53.60;;;;;;5031748;28;20052;-70
2020/12/02 13:26:11;;;;;;;4.18;2.00;;;11.20;53.60;;;;;;5025578;28;20494;-73
2020/12/02 13:28:53;;;;;;;9.60;1.77;;;11.20;53.70;;;;;;5011943;28;20518;-72